Date,TemperatureHighF,TemperatureAvgF,TemperatureLowF,DewpointHighF,DewpointAvgF,DewpointLowF,HumidityHigh,HumidityAvg,HumidityLow,PressureMaxIn,PressureMinIn,WindSpeedMaxMPH,WindSpeedAvgMPH,GustSpeedMaxMPH,PrecipitationSumIn
2013-1-1,28.1,20.7,11.0,19.5,12.1,6.1,81,70,45,30.28,30.15,15,6,18,0.00
2013-1-2,26.9,17.3,10.0,15.3,10.5,5.7,85,75,52,30.31,30.21,19,5,19,0.00
2013-1-3,33.1,26.0,19.4,26.3,20.2,14.2,87,79,65,30.35,30.19,23,8,25,0.00
2013-1-4,34.6,23.4,13.1,25.5,18.5,9.8,88,82,67,30.34,30.25,26,9,26,0.00
2013-1-5,37.5,26.3,17.6,32.3,22.7,15.2,95,86,70,30.33,30.03,20,5,20,0.03
2013-1-6,34.8,27.4,19.3,32.7,24.0,17.5,93,87,78,30.41,29.99,24,8,28,0.00
2013-1-7,37.9,26.3,14.9,28.3,22.0,12.8,94,84,65,30.43,30.20,26,7,30,0.00
2013-1-8,41.6,32.4,23.1,33.9,28.2,20.9,92,85,71,30.25,30.11,19,6,22,0.00
2013-1-9,50.0,38.8,26.1,35.6,29.3,21.4,89,71,40,30.56,30.10,30,8,30,0.00
2013-1-10,43.7,33.7,23.3,40.8,28.6,20.0,97,82,57,30.56,29.93,26,6,26,0.44
2013-1-11,53.2,49.4,41.7,52.7,48.0,40.9,98,95,90,29.93,29.73,24,9,26,0.15
2013-1-12,52.7,43.3,32.3,49.0,39.8,30.1,93,87,79,30.01,29.78,25,8,28,0.10
2013-1-13,32.4,24.9,14.6,30.8,22.5,10.4,95,90,83,30.32,29.90,22,8,22,0.00
2013-1-14,24.4,17.3,12.5,18.1,13.1,9.1,91,83,71,30.54,30.32,15,3,15,0.00
2013-1-15,30.5,21.5,13.1,23.6,17.3,10.1,92,84,70,30.51,30.19,11,2,12,0.00
2013-1-16,36.3,27.6,17.1,28.7,22.6,15.2,93,82,66,30.19,29.94,29,7,29,0.00
2013-1-17,32.8,27.0,19.6,28.6,19.3,13.7,93,74,51,30.47,30.11,22,5,23,0.00
2013-1-18,40.8,30.8,17.7,30.6,24.5,14.4,90,78,65,30.50,30.03,33,10,33,0.00
2013-1-19,48.9,40.5,30.0,39.5,32.7,19.5,82,74,54,30.04,29.81,40,12,42,0.00
2013-1-20,29.9,19.4,14.1,19.9,9.5,6.4,74,65,56,30.35,29.97,33,10,34,0.00
2013-1-21,16.2,10.7,5.0,9.3,2.0,-2.6,83,68,53,30.37,30.22,29,12,33,0.00
2013-1-22,13.0,7.8,0.3,2.4,-0.8,-4.8,80,68,54,30.49,30.36,21,7,21,0.00
2013-1-23,22.1,17.3,12.0,14.5,8.1,1.9,78,67,59,30.44,30.19,25,7,26,0.00
2013-1-24,23.5,16.4,8.1,11.3,5.8,-0.1,74,63,44,30.70,30.39,21,6,21,0.00
2013-1-25,29.2,23.8,18.9,23.0,17.6,10.5,88,77,66,30.47,30.06,20,6,22,0.04
2013-1-26,29.0,21.9,10.8,20.5,14.1,6.7,87,72,51,30.47,30.22,14,4,14,0.00
2013-1-27,37.7,29.2,22.5,36.7,24.8,18.4,96,84,71,30.46,29.99,19,7,23,0.09
2013-1-28,49.5,45.7,37.7,48.7,44.9,36.7,98,97,96,29.99,29.86,24,6,26,0.03
2013-1-29,60.6,56.7,48.2,58.6,55.6,47.7,99,96,92,29.86,29.41,30,11,38,1.51
2013-1-30,52.2,37.7,21.7,51.4,36.1,18.9,99,94,84,29.69,29.23,32,11,37,0.33
2013-1-31,21.7,15.2,6.1,18.9,10.3,1.3,89,80,74,30.25,29.69,32,16,37,0.00
2013-2-1,19.0,9.9,2.0,15.6,4.3,-2.2,89,78,69,30.47,30.25,22,9,26,0.00
2013-2-2,28.0,19.4,9.8,24.2,16.1,5.2,93,87,79,30.29,30.06,15,6,20,0.11
2013-2-3,23.4,18.2,10.5,20.4,14.2,6.1,92,84,75,30.15,30.04,20,6,24,0.04
2013-2-4,31.2,26.1,20.4,26.3,22.9,17.3,93,88,79,30.12,29.89,12,4,13,0.02
2013-2-5,32.9,26.0,15.3,29.9,23.2,12.9,94,89,86,30.15,29.86,22,6,22,0.00
2013-2-6,39.4,31.6,21.5,31.3,26.7,18.0,90,82,68,30.30,30.15,16,4,16,0.00
2013-2-7,42.9,34.7,30.8,38.7,32.8,28.6,97,93,80,30.18,29.88,20,4,21,0.53
2013-2-8,33.3,29.8,26.6,32.5,27.2,24.3,97,90,84,30.45,29.96,24,8,25,0.00
2013-2-9,35.5,31.1,27.7,31.1,26.9,23.0,91,84,78,30.45,30.15,16,5,16,0.00
2013-2-10,48.4,40.0,32.1,46.8,37.9,28.3,96,92,83,30.15,29.56,36,10,36,0.19
2013-2-11,45.3,34.6,30.2,40.3,28.0,24.3,83,76,73,30.10,29.60,37,18,40,0.00
2013-2-12,30.6,27.8,21.3,25.5,23.2,19.1,93,83,78,30.18,30.00,23,7,23,0.00
2013-2-13,44.7,33.1,21.4,35.6,28.6,19.7,96,84,67,30.00,29.78,18,4,19,0.00
2013-2-14,35.3,34.6,33.9,32.7,32.0,31.3,91,90,89,29.82,29.74,14,5,14,0.00
2013-2-16,23.6,18.7,11.9,14.7,9.2,5.4,75,66,56,30.27,30.17,21,8,23,0.00
2013-2-17,30.9,20.4,8.5,20.3,10.6,4.2,85,67,40,30.30,30.09,12,3,13,0.00
2013-2-18,53.7,39.5,26.3,45.3,33.9,20.0,95,81,65,30.10,29.49,30,11,31,0.24
2013-2-19,29.4,17.5,11.6,26.8,12.7,6.0,90,81,76,30.26,29.65,40,17,40,0.00
2013-2-20,25.6,16.9,8.2,17.6,10.9,3.3,86,77,67,30.43,30.26,19,7,20,0.00
2013-2-21,30.2,25.7,19.8,24.8,21.0,15.3,94,82,78,30.43,30.02,28,6,32,0.00
2013-2-22,33.9,28.9,24.7,33.1,27.1,23.2,97,93,86,30.02,29.88,23,9,25,0.36
2013-2-23,28.4,25.9,19.7,24.5,21.2,17.1,90,82,72,30.04,29.98,19,7,21,0.00
2013-2-24,35.7,26.0,16.8,26.0,20.9,14.4,92,81,64,30.22,30.04,9,2,10,0.00
2013-2-25,42.3,31.8,21.3,32.1,26.7,19.3,92,82,65,30.24,29.98,14,4,15,0.00
2013-2-26,35.2,33.6,32.8,32.3,30.4,26.7,96,88,72,29.98,29.52,30,8,30,0.67
2013-2-27,33.5,32.9,32.2,32.6,31.7,30.9,97,95,92,29.74,29.53,16,6,18,0.00
2013-2-28,36.1,33.2,29.7,33.2,30.5,25.2,96,90,83,30.10,29.74,18,7,21,0.05
2013-3-1,32.1,28.7,26.6,29.5,25.6,23.3,92,88,84,30.22,30.08,19,8,22,0.00
2013-3-2,32.7,27.2,19.2,24.5,22.0,15.3,89,81,67,30.23,30.18,19,7,20,0.00
2013-3-3,34.1,24.5,15.1,21.5,16.7,12.4,90,73,50,30.22,30.13,16,4,16,0.00
2013-3-4,33.7,28.5,19.5,29.4,23.8,17.1,91,83,69,30.19,30.03,16,5,19,0.00
2013-3-5,33.2,31.9,29.3,32.2,30.3,28.0,96,94,89,30.03,29.81,16,5,16,0.71
2013-3-6,34.5,30.8,28.1,30.5,28.0,25.8,93,89,83,30.35,29.99,22,8,24,0.05
2013-3-7,37.1,30.6,24.1,30.0,26.3,21.7,92,84,66,30.48,30.35,10,3,10,0.09
2013-3-8,38.6,29.4,20.3,30.1,25.0,18.6,94,84,67,30.55,30.36,13,3,13,0.01
2013-3-9,40.4,35.9,28.2,36.0,32.0,24.7,91,85,80,30.37,29.90,16,6,16,0.02
2013-3-10,51.6,44.2,38.0,48.9,42.5,35.0,97,94,85,29.92,29.61,25,5,32,0.89
2013-3-11,47.7,39.0,32.7,46.9,37.8,29.8,98,95,89,29.86,29.61,28,9,28,0.10
2013-3-12,39.2,32.4,27.6,31.9,27.5,22.7,94,82,65,30.08,29.86,28,12,29,0.05
2013-3-13,34.4,28.3,23.8,24.3,20.9,17.7,88,74,58,30.40,30.08,25,10,25,0.00
2013-3-14,36.4,29.9,23.9,31.5,25.9,19.5,95,85,64,30.40,30.14,12,4,13,0.01
2013-3-15,45.1,36.4,28.5,41.0,34.1,27.4,96,91,82,30.14,29.75,19,3,19,0.01
2013-3-16,38.6,34.2,31.1,34.7,31.1,25.5,97,88,79,30.16,29.70,21,6,22,0.00
2013-3-17,39.0,32.5,29.4,29.0,25.6,22.8,85,75,63,30.24,30.03,21,6,21,0.01
2013-3-18,36.2,31.3,23.6,34.1,28.2,15.9,96,88,72,30.03,29.68,33,9,36,0.04
2013-3-19,35.4,26.9,19.4,22.1,17.8,12.9,80,69,54,30.16,29.88,36,16,41,0.00
2013-3-20,27.2,22.1,16.1,19.6,12.6,7.9,84,66,55,30.17,30.09,28,13,30,0.00
2013-3-21,35.4,24.3,13.4,20.4,15.2,9.1,85,69,48,30.13,30.06,19,7,20,0.00
2013-3-22,41.7,29.6,18.7,23.3,19.7,15.2,87,68,43,30.13,30.05,16,4,18,0.00
2013-3-23,45.4,33.1,24.6,30.0,25.3,21.8,90,74,50,30.18,30.05,19,3,19,0.00
2013-3-24,37.3,32.9,30.4,30.3,27.6,25.7,94,81,68,30.06,29.65,29,8,29,0.02
2013-3-25,37.5,33.3,30.7,32.2,28.7,25.8,90,83,77,30.12,29.70,24,8,24,0.16
2013-3-26,41.7,35.0,28.5,30.6,27.7,24.7,90,76,52,30.30,30.12,19,6,19,0.00
2013-3-27,44.2,36.2,29.2,31.0,26.4,22.0,89,69,44,30.37,30.30,18,4,20,0.00
2013-3-28,50.9,38.5,26.5,32.3,26.3,22.1,85,63,41,30.41,30.31,15,4,19,0.00
2013-3-29,56.2,42.2,29.4,33.4,28.0,21.8,88,60,36,30.37,30.25,16,2,16,0.00
2013-3-30,59.2,45.7,30.5,41.9,34.2,21.5,82,65,47,30.28,29.90,22,6,22,0.00
2013-3-31,60.9,48.2,36.0,44.3,38.9,28.2,96,73,39,29.92,29.74,33,11,37,0.01
2013-4-1,43.3,34.8,26.9,28.8,21.9,17.1,81,61,39,30.23,29.91,23,8,26,0.00
2013-4-2,46.4,33.3,22.6,24.0,18.7,13.9,81,58,29,30.35,30.23,21,6,23,0.00
2013-4-3,47.6,34.7,23.0,27.3,19.9,14.6,77,57,29,30.50,30.35,16,3,18,0.00
2013-4-4,58.9,42.6,25.5,28.7,23.3,19.5,78,51,26,30.38,30.02,14,4,19,0.00
2013-4-5,50.8,41.5,35.2,32.7,27.9,23.2,87,60,37,30.25,30.03,19,6,28,0.00
2013-4-6,71.3,54.2,32.5,49.2,36.2,27.2,81,54,32,30.20,29.66,42,12,42,0.03
2013-4-7,63.2,50.9,40.6,49.2,41.8,35.0,88,73,45,29.97,29.68,29,8,29,0.00
2013-4-8,71.9,55.4,40.9,57.8,48.8,35.7,96,79,56,29.99,29.70,35,10,35,0.38
2013-4-9,78.4,56.5,44.0,63.2,50.0,41.7,93,80,51,30.00,29.81,30,8,31,0.00
2013-4-10,48.4,42.8,40.7,46.8,41.5,39.4,97,95,92,29.98,29.77,25,7,28,1.02
2013-4-11,54.1,46.7,40.4,53.5,45.4,38.1,98,95,88,29.89,29.60,25,7,26,0.56
2013-4-12,44.7,39.7,37.0,40.7,35.7,33.1,92,85,78,29.92,29.63,31,11,31,0.02
2013-4-13,47.4,40.3,34.8,35.9,33.3,30.2,92,77,56,30.03,29.92,28,8,29,0.00
2013-4-14,73.6,54.5,40.3,55.7,44.4,35.1,85,70,47,30.04,29.71,30,8,30,0.00
2013-4-15,67.5,56.4,46.7,58.9,51.5,45.1,96,84,64,30.00,29.73,34,9,36,1.00
2013-4-16,56.9,47.5,42.8,46.7,41.7,36.5,96,81,55,30.29,29.95,16,5,16,0.30
2013-4-17,53.3,47.3,42.2,52.4,43.4,35.3,97,86,73,30.29,29.81,28,7,28,1.18
2013-4-18,65.8,57.0,42.9,64.3,55.6,38.1,98,95,80,29.85,29.45,34,10,34,2.45
2013-4-19,42.8,37.9,35.3,38.0,32.3,30.1,87,80,74,29.98,29.56,38,16,38,0.02
2013-4-20,47.9,38.2,31.0,32.0,28.3,24.7,88,68,48,30.48,29.98,20,7,23,0.00
2013-4-21,55.3,42.2,28.7,38.4,31.4,25.1,87,67,47,30.57,30.38,23,6,24,0.00
2013-4-22,68.4,51.7,35.4,45.5,38.9,31.9,88,65,35,30.38,30.08,16,5,20,0.00
2013-4-23,60.7,50.3,38.5,53.1,46.3,36.7,96,87,72,30.08,29.89,20,5,20,0.52
2013-4-24,50.1,42.0,36.6,39.0,35.4,31.5,95,79,51,30.20,29.94,24,7,24,0.04
2013-4-25,51.8,44.0,36.8,38.2,33.4,29.6,83,67,46,30.37,30.13,24,8,30,0.00
2013-4-26,67.6,51.2,34.4,48.4,40.3,30.3,86,68,48,30.41,30.30,25,6,26,0.00
2013-4-27,70.2,55.7,40.2,51.9,45.1,38.6,96,71,36,30.34,30.02,18,4,19,0.01
2013-4-28,64.0,56.6,52.7,57.3,53.5,50.6,97,90,75,30.02,29.85,10,2,12,0.04
2013-4-29,74.7,61.8,48.8,59.3,53.9,47.3,96,77,51,29.96,29.82,23,6,24,0.00
2013-4-30,85.6,69.3,56.0,64.5,58.1,52.3,88,70,41,29.97,29.84,25,9,31,0.00
2013-5-1,84.6,71.0,56.0,63.3,57.1,54.0,94,65,37,30.14,29.97,24,4,24,0.00
2013-5-2,64.1,54.3,43.1,56.0,47.2,39.0,87,77,61,30.20,30.11,24,6,24,0.00
2013-5-3,56.1,46.6,41.1,52.6,44.2,38.6,95,91,85,30.15,29.96,20,6,21,0.11
2013-5-4,54.2,53.7,53.4,51.6,51.0,50.4,92,91,89,30.04,30.03,3,1,3,0.00
2013-5-5,75.5,59.5,47.7,55.9,48.0,43.8,89,68,40,30.05,29.95,21,5,23,0.00
2013-5-6,75.1,61.6,48.9,51.2,45.1,40.5,79,57,32,30.04,29.96,19,5,19,0.00
2013-5-7,79.3,62.8,47.0,56.5,46.0,39.5,80,57,26,30.06,29.98,16,4,16,0.00
2013-5-8,81.6,66.2,51.4,60.2,51.0,45.3,81,60,37,30.05,29.96,10,2,12,0.00
2013-5-9,75.3,63.3,53.2,61.1,56.1,48.5,96,78,55,29.99,29.82,20,3,20,0.98
2013-5-10,60.9,51.5,44.9,60.0,49.4,41.6,97,93,86,30.01,29.78,20,6,20,0.00
2013-5-11,62.9,51.3,41.1,53.0,42.5,32.0,94,74,39,30.08,29.88,32,8,33,0.00
2013-5-12,57.1,46.3,35.5,36.9,32.3,28.5,82,60,36,30.16,30.07,22,7,24,0.00
2013-5-13,66.7,53.0,33.9,41.0,33.5,27.3,88,52,24,30.23,30.06,21,4,21,0.00
2013-5-14,90.4,72.1,53.6,61.9,51.4,39.5,63,50,26,30.06,29.68,22,8,23,0.00
2013-5-15,87.2,73.2,59.3,62.4,56.1,48.7,76,57,27,29.83,29.68,22,6,23,0.01
2013-5-16,83.3,69.1,54.5,54.2,49.1,40.4,86,53,24,29.97,29.82,15,3,16,0.00
2013-5-17,82.5,66.7,57.1,65.1,58.4,48.4,96,76,52,30.03,29.95,18,2,21,0.36
2013-5-18,80.7,69.1,60.1,68.6,63.2,59.0,98,83,60,30.08,29.95,14,3,15,0.00
2013-5-19,87.5,74.2,61.2,70.7,65.1,60.0,97,75,49,29.97,29.77,20,4,21,0.00
2013-5-20,90.5,78.5,64.5,69.2,64.4,55.5,95,65,33,29.83,29.71,37,9,38,1.11
2013-5-21,81.7,71.2,61.7,70.3,65.2,60.5,97,82,62,29.80,29.66,22,7,25,0.40
2013-5-22,74.0,68.2,61.9,67.3,62.5,56.1,95,83,56,29.77,29.62,22,7,22,0.27
2013-5-23,61.9,51.8,40.2,57.6,47.4,36.3,95,85,68,30.30,29.76,28,7,31,0.05
2013-5-24,61.7,49.0,36.9,46.5,38.4,34.4,92,69,43,30.46,30.29,14,4,16,0.00
2013-5-25,58.2,49.6,40.3,50.9,43.2,36.0,89,79,60,30.44,30.30,10,2,13,0.02
2013-5-26,66.7,55.5,43.5,55.2,49.0,40.2,95,80,53,30.33,30.14,18,4,18,0.29
2013-5-27,64.7,59.8,55.7,62.9,58.5,54.3,98,95,88,30.16,29.86,16,4,22,0.74
2013-5-28,78.1,68.4,61.5,71.3,65.6,60.9,98,91,77,29.92,29.73,30,6,38,0.18
2013-5-29,85.5,73.5,63.2,74.3,66.7,61.5,97,81,59,29.96,29.82,19,6,22,0.07
2013-5-30,82.9,73.4,64.0,74.6,67.5,61.6,96,82,66,29.96,29.81,29,8,33,0.54
2013-5-31,78.3,69.9,64.0,70.7,66.4,62.5,97,89,76,29.92,29.74,23,7,26,0.34
2013-6-1,76.1,67.5,61.8,69.1,63.8,59.6,95,88,77,29.78,29.66,30,7,30,0.64
2013-6-2,63.4,55.5,44.9,60.8,52.8,43.3,95,90,84,30.08,29.75,16,5,18,0.00
2013-6-3,68.9,55.2,41.6,54.4,46.3,40.5,98,74,48,30.16,30.06,10,1,10,0.00
2013-6-4,74.2,60.4,45.6,55.2,49.1,43.3,94,68,42,30.18,30.09,14,3,18,0.00
2013-6-5,78.4,65.7,55.1,59.0,53.3,49.2,85,66,41,30.10,29.91,14,4,15,0.00
2013-6-6,69.6,61.5,54.8,61.3,53.1,48.1,89,74,58,29.92,29.86,20,5,20,0.02
2013-6-7,71.9,60.7,51.5,59.1,51.0,41.7,91,72,45,29.95,29.89,16,4,18,0.00
2013-6-8,77.8,63.5,48.0,61.3,50.3,41.7,87,63,40,30.02,29.93,13,2,15,0.00
2013-6-9,82.7,70.9,57.5,64.5,57.8,49.2,88,65,44,30.02,29.81,20,4,22,0.01
2013-6-10,78.5,69.4,61.9,68.2,64.9,60.6,98,87,63,29.87,29.75,13,2,15,0.69
2013-6-11,86.5,72.6,59.3,72.1,65.3,58.5,98,80,47,29.95,29.80,13,2,16,0.11
2013-6-12,91.6,75.3,63.6,76.0,69.7,62.4,97,84,53,29.91,29.57,38,4,43,2.33
2013-6-13,77.4,66.8,56.9,65.2,59.8,52.8,97,80,54,30.05,29.63,22,6,22,0.05
2013-6-14,79.4,65.5,53.0,65.3,56.9,50.9,93,75,52,30.14,30.02,15,3,19,0.00
2013-6-15,80.5,69.2,58.9,70.9,64.1,55.1,95,85,67,30.08,29.89,24,3,32,0.15
2013-6-16,82.8,73.5,66.5,70.9,66.9,64.0,93,80,60,29.94,29.87,20,5,32,0.00
2013-6-17,88.0,75.1,63.6,69.2,62.9,56.0,97,70,35,29.95,29.85,14,3,16,0.00
2013-6-18,74.3,64.3,57.4,64.2,57.4,50.6,90,79,66,30.06,29.89,18,5,19,0.00
2013-6-19,84.2,68.9,56.6,62.4,55.7,51.4,87,65,43,30.15,30.05,13,3,13,0.00
2013-6-20,88.9,74.5,59.8,69.9,61.8,53.2,85,66,43,30.17,30.07,12,2,12,0.00
2013-6-21,86.7,73.5,65.3,72.5,66.5,61.5,91,80,57,30.14,29.89,28,5,30,0.03
2013-6-22,79.5,73.0,67.1,75.4,68.8,64.4,95,87,73,30.10,29.98,17,4,21,0.12
2013-6-23,87.2,73.5,65.5,76.0,68.8,63.5,96,86,65,30.07,29.94,23,4,24,0.71
2013-6-24,85.2,71.7,67.0,77.4,68.5,64.3,97,90,64,30.10,29.89,45,5,45,0.31
2013-6-25,88.1,76.3,67.1,77.5,71.1,65.4,97,85,67,29.97,29.81,21,6,23,0.01
2013-6-26,80.7,72.6,66.5,74.1,68.8,64.4,97,88,72,29.86,29.71,17,3,17,0.31
2013-6-27,90.0,76.9,65.4,76.0,69.1,63.8,97,79,53,29.79,29.69,21,6,25,0.00
2013-6-28,83.4,72.1,65.1,67.5,63.7,60.0,94,77,47,29.71,29.60,29,7,29,0.19
2013-6-29,71.9,66.0,62.9,66.9,62.8,57.4,97,90,74,29.75,29.59,17,4,18,0.06
2013-6-30,78.6,68.3,62.4,66.2,59.7,50.3,94,75,51,29.96,29.75,20,5,22,0.00
2013-7-1,74.6,67.3,57.9,62.7,57.5,54.3,90,71,55,30.04,29.96,23,5,23,0.00
2013-7-2,67.9,63.9,61.1,61.2,58.5,55.1,93,83,73,30.07,30.02,16,4,23,0.00
2013-7-3,74.0,65.7,59.4,67.8,62.3,58.3,97,89,74,30.09,30.01,14,3,14,0.00
2013-7-4,82.3,70.2,57.0,69.3,62.8,56.1,98,79,58,30.13,30.06,16,3,20,0.00
2013-7-5,85.7,72.9,58.6,70.9,65.1,57.6,97,78,56,30.11,30.02,13,2,15,0.00
2013-7-6,79.1,72.6,66.1,71.4,67.7,64.6,96,85,71,30.08,29.98,9,2,12,0.00
2013-7-7,88.3,76.9,66.7,75.7,70.1,64.9,96,81,61,30.04,29.96,15,4,16,0.00
2013-7-8,87.3,76.3,71.4,77.4,71.5,69.2,95,85,66,30.06,29.95,21,5,23,0.05
2013-7-9,84.6,78.2,72.9,78.6,74.8,71.5,96,89,77,30.01,29.88,32,4,32,0.07
2013-7-10,87.6,76.0,61.6,78.3,70.1,58.8,98,83,64,30.01,29.83,24,4,26,0.00
2013-7-11,80.8,69.4,60.0,66.2,58.5,53.0,94,71,41,30.10,30.00,0,0,0,0.00
2013-7-12,84.6,70.1,54.7,66.1,59.6,52.2,93,72,46,30.16,30.08,13,1,13,0.00
2013-7-13,85.4,72.8,58.7,67.7,62.8,56.7,94,73,48,30.17,30.10,13,2,15,0.00
2013-7-14,89.8,77.6,65.6,74.3,69.2,63.9,96,77,53,30.20,30.13,15,3,15,0.00
2013-7-15,93.0,80.7,71.3,79.0,73.3,68.2,96,79,57,30.26,30.19,14,2,14,0.00
2013-7-16,93.2,81.9,70.7,78.0,73.5,69.5,97,77,55,30.32,30.24,13,3,15,0.00
2013-7-17,94.8,83.6,70.9,78.1,73.3,69.1,95,73,50,30.32,30.17,14,3,14,0.00
2013-7-18,95.5,84.5,74.0,78.9,75.2,71.9,94,75,52,30.18,29.97,18,4,20,0.00
2013-7-19,95.7,85.2,75.1,78.2,74.1,71.4,92,71,47,29.97,29.77,26,7,29,0.00
2013-7-20,90.6,79.4,71.8,75.1,68.4,60.7,91,71,39,29.92,29.79,14,3,15,0.01
2013-7-21,87.8,76.8,66.7,73.2,69.1,65.5,96,78,53,29.95,29.84,16,3,17,0.00
2013-7-22,88.4,77.0,67.6,73.1,69.1,66.4,97,78,51,29.87,29.74,13,3,14,0.01
2013-7-23,82.6,71.3,59.9,70.9,63.9,55.3,93,78,63,29.96,29.68,34,6,34,0.00
2013-7-24,74.8,64.3,53.1,57.6,53.2,50.2,92,69,47,30.06,29.94,16,3,21,0.00
2013-7-25,80.8,67.3,52.3,61.9,55.6,50.0,93,69,42,30.12,30.03,9,2,10,0.00
2013-7-26,76.3,66.2,60.3,66.2,61.4,56.0,96,85,64,30.06,29.89,21,4,21,0.11
2013-7-27,70.0,62.0,55.9,65.6,55.8,49.0,96,81,58,29.94,29.87,29,6,29,0.01
2013-7-28,70.8,59.8,49.7,54.6,50.8,47.2,94,74,50,30.05,29.90,22,6,23,0.00
2013-7-29,78.6,64.5,52.3,61.4,55.2,49.4,91,74,50,30.18,30.04,16,4,17,0.00
2013-7-30,68.3,63.3,55.5,65.8,60.3,53.0,94,90,78,30.19,30.08,12,1,13,0.22
2013-7-31,76.0,68.6,64.9,69.3,65.6,62.6,96,90,79,30.08,29.95,13,2,14,0.06
2013-8-1,81.6,70.1,60.2,66.3,59.1,53.7,96,71,39,29.99,29.94,23,5,25,0.00
2013-8-2,85.0,70.7,59.6,72.8,65.3,55.5,96,84,63,29.96,29.84,22,4,22,0.39
2013-8-3,80.4,71.0,61.1,68.7,61.5,54.1,95,74,45,30.11,29.93,15,3,16,0.01
2013-8-4,79.4,67.5,55.5,63.4,57.4,53.2,93,72,47,30.18,30.10,15,2,16,0.00
2013-8-5,73.3,64.9,56.1,66.0,60.5,53.7,93,86,73,30.12,29.88,16,2,18,0.05
2013-8-6,82.8,71.7,63.8,73.4,67.7,62.3,96,88,70,29.92,29.84,16,3,16,0.01
2013-8-7,87.0,76.9,68.2,78.1,71.7,64.8,96,85,65,29.92,29.79,15,4,16,0.00
2013-8-8,80.3,71.1,65.3,65.5,61.9,54.8,92,74,54,30.00,29.92,16,3,22,0.00
2013-8-9,83.6,72.0,57.7,67.3,62.0,54.3,94,72,50,30.03,29.97,15,3,15,0.00
2013-8-10,85.6,72.9,62.2,68.2,61.7,56.1,95,71,43,30.11,30.03,17,2,17,0.00
2013-8-11,83.9,71.1,58.1,65.5,60.6,54.7,93,71,47,30.13,30.04,13,2,15,0.00
2013-8-12,84.8,73.8,62.0,72.3,66.3,59.8,96,78,55,30.05,29.85,16,4,21,0.28
2013-8-13,73.9,65.3,55.3,66.7,55.6,45.8,96,73,44,30.14,29.91,21,4,21,0.00
2013-8-14,73.3,60.8,51.8,58.5,52.6,49.2,92,76,49,30.23,30.14,13,2,15,0.00
2013-8-15,74.8,62.6,50.5,58.8,54.2,48.5,95,76,52,30.20,30.11,13,2,13,0.00
2013-8-16,81.1,68.2,57.3,63.4,56.3,51.1,90,68,38,30.19,30.12,13,1,16,0.00
2013-8-17,81.0,67.2,54.7,63.0,56.2,52.7,94,71,40,30.24,30.15,16,2,16,0.00
2013-8-18,83.7,70.1,57.6,65.3,59.9,56.2,96,73,42,30.20,30.09,12,1,12,0.00
2013-8-19,85.5,71.6,57.9,66.4,61.6,56.2,95,73,46,30.13,30.03,13,2,13,0.00
2013-8-20,87.8,74.1,61.6,70.0,64.7,60.2,96,75,47,30.13,30.03,15,2,18,0.00
2013-8-21,90.3,76.9,63.0,71.8,66.7,61.5,96,73,46,30.10,29.98,16,4,18,0.00
2013-8-22,75.4,69.6,64.8,69.8,67.8,63.8,97,94,78,30.13,29.99,21,3,21,1.81
2013-8-23,82.4,71.0,62.7,70.0,62.0,56.6,98,76,44,30.16,30.09,13,2,15,0.00
2013-8-24,84.6,70.7,58.0,66.4,60.7,54.9,90,73,49,30.26,30.16,14,2,16,0.00
2013-8-25,87.6,73.7,58.8,70.2,63.6,56.1,91,72,51,30.27,30.15,15,3,18,0.00
2013-8-26,89.0,76.6,63.6,76.4,69.3,60.6,92,79,63,30.17,30.01,20,4,20,0.00
2013-8-27,91.6,80.9,72.4,79.2,73.0,68.8,92,78,59,30.02,29.85,18,6,22,0.00
2013-8-28,84.7,77.5,70.3,76.4,70.1,66.2,93,78,68,30.02,29.83,17,5,23,0.00
2013-8-29,88.6,76.6,69.4,73.6,68.8,65.9,96,79,48,30.07,29.97,10,2,13,0.00
2013-8-30,93.2,76.9,66.1,79.9,70.4,64.6,95,82,55,29.98,29.76,28,4,34,0.49
2013-8-31,81.1,71.7,67.9,73.8,68.9,66.1,96,91,76,29.84,29.75,15,2,21,0.02
2013-9-1,82.9,73.4,65.6,72.1,68.9,64.5,98,87,65,29.80,29.73,15,3,15,0.11
2013-9-2,79.9,68.8,59.6,68.4,63.7,57.6,96,85,61,29.98,29.76,15,3,15,0.01
2013-9-3,75.6,64.8,56.6,61.1,57.1,54.0,95,78,53,30.09,29.97,13,3,15,0.00
2013-9-4,80.9,67.4,54.4,64.5,58.8,52.7,95,76,47,30.14,30.05,15,3,15,0.00
2013-9-5,77.8,67.6,60.4,65.2,58.5,50.1,91,74,54,30.23,30.11,14,3,15,0.00
2013-9-6,83.9,69.3,56.1,70.4,59.5,50.1,89,72,55,30.22,30.03,12,2,14,0.00
2013-9-7,86.6,73.1,61.2,69.4,64.5,60.0,96,77,48,30.03,29.89,18,3,18,0.00
2013-9-8,84.7,75.4,68.0,71.7,68.3,65.3,92,79,61,29.98,29.91,16,4,16,0.00
2013-9-9,93.7,79.3,64.9,78.0,70.8,63.4,96,77,52,29.95,29.82,16,4,18,0.00
2013-9-10,94.8,82.3,71.3,72.3,68.5,65.8,89,66,41,30.01,29.89,22,5,25,0.00
2013-9-11,92.4,79.4,70.7,73.5,69.6,66.3,93,74,47,30.04,29.96,20,5,22,0.05
2013-9-12,83.4,70.4,60.6,70.3,62.4,51.1,95,78,36,30.06,29.91,29,5,30,0.01
2013-9-13,68.4,58.4,48.9,58.0,50.1,44.8,94,75,51,30.15,30.05,20,4,23,0.00
2013-9-14,70.2,56.4,43.7,50.3,44.6,40.7,95,68,35,30.21,30.06,14,2,14,0.00
2013-9-15,67.7,58.2,49.7,58.9,52.8,44.4,95,83,63,30.15,29.97,15,3,15,0.17
2013-9-16,65.8,58.4,50.7,57.8,52.3,47.7,96,81,58,30.35,30.15,16,4,20,0.00
2013-9-17,72.0,59.1,47.2,57.5,51.5,45.3,93,77,55,30.35,30.13,15,2,17,0.00
2013-9-18,82.0,65.6,54.4,68.9,60.2,51.8,96,84,62,30.13,29.93,22,3,23,0.58
2013-9-19,90.4,74.9,64.9,75.3,69.2,63.2,96,84,54,29.99,29.80,16,5,21,0.02
2013-9-20,76.4,68.3,56.0,70.8,62.8,52.3,95,83,67,29.85,29.77,18,6,30,0.02
2013-9-21,68.4,57.0,48.6,54.2,49.2,44.8,95,77,51,29.95,29.81,16,4,23,0.01
2013-9-22,67.9,55.2,46.4,53.2,47.8,43.9,91,78,53,30.07,29.95,15,2,15,0.00
2013-9-23,71.1,56.2,43.6,51.6,46.6,41.2,92,73,42,30.13,30.03,13,2,13,0.00
2013-9-24,73.5,58.7,46.4,55.3,49.6,44.2,93,74,45,30.08,29.92,15,3,20,0.00
2013-9-25,74.7,60.6,49.4,56.0,51.5,46.6,93,74,46,29.97,29.91,13,2,16,0.00
2013-9-26,77.6,62.0,50.2,58.7,52.5,47.8,94,75,36,30.09,29.96,13,2,13,0.00
2013-9-27,81.2,64.8,51.2,59.5,51.2,46.4,91,65,36,30.17,30.06,16,2,17,0.00
2013-9-28,83.5,67.7,51.2,64.1,55.2,46.4,92,67,43,30.10,29.91,24,5,26,0.00
2013-9-29,71.6,60.2,49.0,64.2,53.9,47.2,96,81,53,30.05,29.92,18,4,20,0.16
2013-9-30,74.7,59.6,44.3,55.8,50.4,43.0,96,75,40,30.03,29.89,13,2,16,0.00
2013-10-1,77.8,67.7,55.6,66.7,62.5,52.7,96,84,65,29.99,29.91,21,6,21,0.00
2013-10-2,81.5,70.1,62.1,66.2,61.1,52.5,96,76,45,30.08,29.98,15,2,17,0.00
2013-10-3,77.9,67.7,61.7,71.5,65.7,59.4,97,93,78,29.99,29.85,28,3,41,1.44
2013-10-4,83.6,70.8,62.7,73.4,66.8,61.7,97,88,60,29.99,29.91,12,2,15,0.00
2013-10-5,81.5,71.3,65.8,73.5,68.4,64.6,97,91,70,29.95,29.76,15,4,20,1.34
2013-10-6,68.0,55.0,46.5,67.1,49.1,41.5,97,81,56,29.80,29.70,22,6,28,0.22
2013-10-7,66.5,53.3,44.2,50.2,46.2,42.0,95,79,51,30.11,29.79,20,6,22,0.01
2013-10-8,74.5,57.4,43.8,55.5,48.2,42.2,96,74,40,30.22,30.11,9,1,10,0.00
2013-10-9,71.2,56.7,44.4,52.0,46.9,42.8,95,73,39,30.27,30.14,13,1,14,0.00
2013-10-10,74.1,59.5,45.8,57.8,51.0,43.3,93,75,50,30.19,30.06,10,1,10,0.00
2013-10-11,76.8,61.3,51.1,58.4,51.7,47.1,90,73,49,30.10,29.97,14,2,16,0.00
2013-10-12,73.2,61.0,51.9,64.6,55.1,44.9,92,81,66,30.19,29.99,17,4,20,0.00
2013-10-13,64.7,52.7,43.2,46.8,41.9,34.5,90,70,34,30.42,30.19,15,3,16,0.00
2013-10-14,64.5,51.1,39.8,48.4,43.6,37.7,95,77,48,30.42,30.16,16,3,20,0.00
2013-10-15,63.4,56.3,48.2,61.7,53.1,43.9,96,89,81,30.16,29.81,17,5,18,0.18
2013-10-16,54.1,49.9,42.9,48.1,45.2,40.4,93,84,76,29.98,29.89,21,6,21,0.00
2013-10-17,54.7,48.4,39.6,47.9,44.4,37.3,94,86,69,29.97,29.86,22,4,22,0.12
2013-10-18,49.6,43.9,37.9,43.6,39.9,36.1,95,86,72,30.01,29.88,18,5,26,0.00
2013-10-19,54.1,47.3,41.8,41.7,39.3,35.2,93,75,50,29.98,29.83,24,6,30,0.02
2013-10-20,65.5,52.1,39.1,49.3,42.4,36.0,92,71,47,29.92,29.76,25,6,25,0.00
2013-10-21,54.7,45.8,32.6,47.6,37.4,26.1,89,73,53,30.01,29.83,24,7,28,0.05
2013-10-22,43.3,35.4,28.9,35.6,31.1,24.7,94,85,64,30.04,29.95,8,2,9,0.07
2013-10-23,44.9,37.4,29.5,36.0,31.6,28.0,95,81,58,30.07,29.93,21,6,22,0.00
2013-10-24,43.4,38.8,35.5,33.0,29.6,24.8,86,70,51,30.34,30.06,20,7,22,0.00
2013-10-25,50.2,38.9,27.6,33.7,29.2,24.5,88,70,48,30.47,30.13,20,6,23,0.00
2013-10-26,55.0,45.2,36.8,40.3,33.7,29.7,78,64,50,30.14,29.90,28,9,28,0.00
2013-10-27,54.3,41.6,30.0,36.1,31.6,26.5,91,69,45,30.12,30.02,18,4,20,0.00
2013-10-28,59.9,43.6,30.3,46.5,37.3,27.2,92,79,53,30.36,30.10,15,2,15,0.00
2013-10-29,54.8,44.3,36.4,46.3,40.3,34.2,93,86,64,30.38,30.17,13,3,13,0.01
2013-10-30,63.5,52.9,43.6,62.6,51.5,41.5,97,95,90,30.17,29.80,25,3,28,2.29
2013-10-31,63.5,59.2,46.7,62.6,57.8,44.1,97,95,91,29.80,29.22,29,10,31,0.61
2013-11-1,52.0,47.1,44.7,44.4,43.4,41.5,94,87,73,29.77,29.42,28,9,30,0.03
2013-11-2,49.7,42.7,36.9,43.7,39.5,35.6,96,89,71,30.17,29.76,18,4,20,0.01
2013-11-3,53.5,41.6,32.0,42.3,36.6,30.2,96,83,58,30.33,30.16,14,2,15,0.00
2013-11-4,56.8,48.7,40.6,45.2,41.7,37.0,90,77,60,30.32,30.16,24,8,28,0.00
2013-11-5,55.6,52.0,49.7,51.6,47.8,44.8,94,86,76,30.31,30.00,21,6,21,0.04
2013-11-6,56.1,47.7,34.3,54.7,45.4,30.6,96,92,85,30.19,29.84,36,11,37,1.02
2013-11-7,45.3,35.3,29.8,37.1,30.9,27.2,92,84,65,30.31,30.20,24,6,24,0.01
2013-11-8,48.9,38.6,28.6,36.9,32.4,26.6,94,79,57,30.39,30.03,25,5,25,0.00
2013-11-9,59.3,49.7,42.4,44.2,39.4,33.6,81,68,52,30.15,29.93,34,13,34,0.00
2013-11-10,47.6,40.3,32.2,35.0,32.2,28.5,87,73,58,30.37,30.15,29,7,29,0.00
2013-11-11,47.1,38.4,25.3,40.4,32.8,20.0,93,81,69,30.51,30.13,22,7,24,0.14
2013-11-12,33.7,26.5,22.2,25.4,20.3,17.7,84,78,61,30.73,30.51,18,7,18,0.00
2013-11-13,37.8,29.0,19.0,26.0,21.3,15.3,87,73,54,30.66,30.26,24,9,26,0.00
2013-11-14,51.0,38.9,29.7,31.7,27.2,22.7,76,63,46,30.26,30.02,24,10,25,0.00
2013-11-15,48.1,41.5,37.2,39.1,33.6,29.0,87,74,60,30.05,29.98,17,6,20,0.00
2013-11-16,59.5,54.4,37.7,57.2,51.8,34.4,95,91,84,30.00,29.62,36,12,36,0.20
2013-11-17,68.5,58.2,42.9,64.3,54.7,37.5,96,88,74,29.77,29.20,50,16,51,0.42
2013-11-18,44.4,38.5,29.6,37.6,32.1,25.9,86,78,62,30.29,29.77,34,12,37,0.00
2013-11-19,42.5,32.5,24.4,33.6,27.9,21.4,91,83,67,30.41,30.29,10,3,13,0.00
2013-11-20,44.3,36.5,27.6,38.3,32.0,24.8,93,84,67,30.34,30.12,23,5,23,0.15
2013-11-21,49.0,45.4,40.2,46.0,43.1,38.2,96,92,85,30.21,30.14,15,3,16,0.34
2013-11-22,46.0,37.5,27.2,44.9,34.6,24.4,96,89,77,30.51,30.19,21,6,21,0.00
2013-11-23,27.2,22.5,14.3,24.4,15.1,7.2,90,73,56,30.75,30.47,23,9,26,0.00
2013-11-24,26.6,18.5,10.7,13.6,9.5,5.6,84,68,42,30.79,30.48,15,5,17,0.00
2013-11-25,31.9,27.8,20.0,26.9,21.2,12.6,88,76,61,30.48,30.15,30,9,30,0.00
2013-11-26,36.5,29.7,18.0,29.5,23.9,9.2,86,79,63,30.18,30.04,24,7,26,0.00
2013-11-27,28.5,20.2,12.9,15.8,11.7,7.4,79,69,57,30.33,30.17,22,8,23,0.00
2013-11-28,35.4,27.4,19.6,20.8,17.9,14.6,83,68,54,30.54,30.24,25,6,25,0.00
2013-11-29,36.7,25.9,15.4,24.2,19.6,12.2,91,77,57,30.69,30.47,12,3,15,0.00
2013-11-30,50.5,36.3,26.1,34.5,28.4,22.2,89,74,52,30.47,30.11,20,5,22,0.00
2013-12-1,45.6,34.4,26.3,38.3,30.8,24.0,94,87,72,30.13,30.02,10,2,12,0.00
2013-12-2,41.7,36.6,33.1,34.9,32.0,30.4,94,84,66,30.02,29.78,16,4,18,0.10
2013-12-3,50.4,43.8,36.1,48.5,42.4,34.5,96,95,93,29.78,29.70,17,5,20,0.00
2013-12-4,55.8,49.8,41.6,55.0,48.5,38.0,97,96,87,29.77,29.54,30,7,30,0.00
2013-12-5,41.6,27.5,22.0,38.0,22.2,15.6,89,80,75,30.31,29.73,26,12,28,0.00
2013-12-6,22.0,19.2,11.8,15.7,12.8,7.6,83,76,69,30.59,30.27,15,6,16,0.00
2013-12-7,21.7,14.0,8.1,10.9,7.2,3.8,84,75,54,30.75,30.59,14,4,14,0.00
2013-12-8,26.0,19.9,12.4,24.3,15.8,8.3,93,84,79,30.66,30.00,18,5,25,0.07
2013-12-9,26.0,18.3,4.0,24.3,13.7,-1.6,93,82,72,30.31,30.00,28,10,28,0.00
2013-12-10,24.1,13.2,-0.9,15.3,6.7,-5.3,84,75,62,30.38,30.13,28,9,32,0.00
2013-12-11,21.9,13.7,-2.3,17.2,8.9,-6.9,90,81,71,30.65,30.34,20,6,20,0.07
2013-12-12,22.4,9.9,-3.4,14.1,4.2,-8.0,88,78,68,30.64,30.30,20,6,24,0.00
2013-12-13,29.8,21.6,10.2,25.9,17.5,6.9,93,84,75,30.30,30.14,9,3,13,0.07
2013-12-14,30.9,28.7,21.1,27.8,26.1,18.0,94,90,87,30.14,29.90,15,6,17,0.16
2013-12-15,21.0,14.6,11.3,18.0,10.4,7.2,91,83,78,30.19,30.00,26,9,26,0.00
2013-12-16,21.8,17.5,12.7,18.2,14.0,8.5,92,86,78,30.21,30.08,16,3,17,0.04
2013-12-17,32.4,24.9,18.0,27.5,21.3,15.8,93,86,76,30.16,30.02,18,9,23,0.01
2013-12-18,36.2,24.3,13.3,32.4,18.9,9.5,88,80,70,30.24,29.91,21,8,28,0.00
2013-12-19,41.0,36.2,29.0,37.1,33.5,26.8,95,90,85,29.98,29.81,15,2,16,0.02
2013-12-20,39.5,36.0,33.4,38.5,35.0,32.3,96,96,95,29.83,29.73,15,2,15,0.17
2013-12-21,34.7,32.9,30.3,33.9,32.0,29.3,97,96,96,29.88,29.56,21,4,26,0.50
2013-12-22,33.8,31.5,27.2,32.8,29.9,23.9,96,94,87,30.16,29.58,20,7,20,0.09
2013-12-23,27.5,15.3,1.8,24.7,11.6,-2.8,91,85,75,30.54,30.16,22,11,24,0.00
2013-12-24,19.4,9.3,0.5,14.5,4.9,-3.7,86,82,75,30.66,30.44,20,7,20,0.00
2013-12-25,28.1,24.8,19.3,26.2,21.2,14.2,93,86,78,30.44,30.17,24,8,28,0.03
2013-12-26,34.6,26.9,14.6,30.0,22.4,10.9,91,83,76,30.37,30.17,26,8,28,0.00
2013-12-27,44.5,35.4,25.4,35.5,30.6,23.1,94,83,68,30.35,30.15,21,7,22,0.00
2013-12-28,50.8,40.1,33.2,40.4,34.2,30.1,89,80,66,30.15,29.89,21,8,22,0.00
2013-12-29,37.1,29.8,17.9,32.4,26.2,12.1,92,86,78,30.21,29.80,23,8,23,0.01
2013-12-30,17.8,11.9,4.8,12.1,6.7,0.3,88,79,70,30.39,30.21,16,5,16,0.04
2013-12-31,16.5,10.8,1.7,13.8,7.3,-1.5,89,86,79,30.45,30.24,14,4,15,0.03
2014-1-1,22.2,19.4,16.5,18.0,16.5,13.8,91,88,82,30.34,30.18,17,6,20,0.13
2014-1-2,22.9,15.9,1.2,19.0,12.3,-3.0,91,85,73,30.46,30.14,22,6,24,0.12